Aviation Digital Data Service (ADDS)

Output produced by METARs form (2105 UTC 05 July 2015)
found at http://aviationweather.gov/adds/metars/
 
KDET 051720Z 0518/0618 16005KT P6SM FEW050 BKN250 
     FM060000 VRB03KT P6SM SCT250 
     FM060900 VRB03KT 6SM HZ SCT250 
     FM061200 18007KT P6SM SCT250